ADDS METAR Data INFO
IDs: Format: Raw Decoded Include TAF

Data at: 0050 UTC 27 Apr 2018

KHTS 262351Z 11003KT 10SM FEW120 17/05 A2984 RMK AO2 SLP103 T01670050 10183 20167 50000
KHTS 262251Z 10003KT 10SM CLR 18/04 A2984 RMK AO2 SLP104 T01780044
KHTS 262151Z VRB04KT 10SM CLR 18/06 A2984 RMK AO2 SLP102 T01830056
KHTS 262051Z 26003KT 10SM FEW050 18/06 A2984 RMK AO2 SLP102 T01830061 56020
KHTS 261951Z VRB03KT 10SM BKN048 18/07 A2985 RMK AO2 SLP106 T01830067
KHTS 261851Z 00000KT 10SM SCT050 18/06 A2987 RMK AO2 SLP114 T01780061
KHTS 261751Z 14005KT 10SM CLR 17/06 A2990 RMK AO2 SLP122 T01670061 10172 20078 58015
KHTS 261651Z 10004KT 10SM FEW013 15/10 A2993 RMK AO2 SLP132 T01500100
KHTS 261638Z 06004KT 10SM SCT014 15/11 A2993 RMK AO2 T01500106
KHTS 261616Z 08004KT 10SM BKN010 14/11 A2994 RMK AO2 T01440111
KHTS 261551Z 08004KT 10SM OVC007 13/11 A2994 RMK AO2 CIG 005V009 SLP139 T01330106
KHTS 261541Z 06004KT 10SM OVC005 12/10 A2995 RMK AO2 CIG 004V008 T01220100
KHTS 261451Z 06004KT 4SM BR OVC003 11/10 A2994 RMK AO2 SLP139 T01110100 51016
KHTS 261442Z 07004KT 2SM BR OVC002 11/09 A2994 RMK AO2 T01060094
KHTS 261434Z 07004KT 3SM BR OVC002 11/10 A2994 RMK AO2 T01060100
KHTS 261430Z 12003KT 1 3/4SM BR OVC002 11/10 A2994 RMK AO2 T01060100
KHTS 261419Z 09003KT 1/2SM FG VV002 11/10 A2993 RMK AO2 T01060100
KHTS 261351Z 00000KT 1/4SM FG VV002 10/09 A2994 RMK AO2 SLP136 T01000094
KHTS 261251Z 00000KT M1/4SM FG VV002 09/08 A2991 RMK AO2 SLP129 T00890083
KHTS 261158Z 04004KT M1/4SM FG VV002 08/07 A2990 RMK AO2 T00830072
KHTS 261151Z 05003KT M1/4SM FG VV001 08/07 A2990 RMK AO2 SLP123 70001 T00780072 10089 20061 53003
KHTS 261051Z 05003KT M1/4SM FG VV001 07/06 A2988 RMK AO2 SLP119 T00670056 $
KHTS 261010Z 00000KT 1/4SM FG VV001 07/06 A2988 RMK AO2 T00720056 $
KHTS 260958Z 00000KT 1/2SM FG VV001 07/06 A2988 RMK AO2 T00670056 $
KHTS 260951Z AUTO 00000KT 1/4SM FG VV001 07/06 A2988 RMK AO2 SLP118 T00720056 $
KHTS 260935Z 00000KT 1/4SM FG BKN001 BKN055 07/06 A2988 RMK AO2 T00720061 $
KHTS 260927Z 00000KT 1/2SM FG SCT001 BKN045 BKN060 07/06 A2988 RMK AO2 T00720061 $
KHTS 260925Z 00000KT 1SM BR VV001 07/06 A2988 RMK AO2 VIS 1/4V2 1/2 T00720061 $
KHTS 260918Z 00000KT 3/4SM BR VV001 07/06 A2988 RMK AO2 T00720061 $
KHTS 260853Z 21003KT 1/4SM FG VV001 07/06 A2989 RMK AO2 T00720061 $
KHTS 260851Z 21003KT 1/2SM FG 07/06 A2989 RMK AO2 SLP119 T00720061 56007 $
KHTS 260841Z 00000KT 1SM BR VV001 07/06 A2989 RMK AO2 T00720061 $
KHTS 260831Z 00000KT 1/4SM FG VV001 07/07 A2988 RMK AO2 T00720067 $
KHTS 260814Z 00000KT 3/4SM BR VV001 08/07 A2989 RMK AO2 T00780067 $
KHTS 260758Z 00000KT 1/4SM FG VV001 08/06 A2989 RMK AO2 T00780061 $
KHTS 260751Z 00000KT 1/4SM FG BKN002 OVC050 08/07 A2989 RMK AO2 SLP120 T00780067 $
KHTS 260651Z 00000KT 1/4SM FG BKN002 OVC055 08/07 A2989 RMK AO2 SLP121 T00780072 $
KHTS 260605Z 07003KT 3/4SM BR BKN002 BKN055 08/07 A2990 RMK AO2 T00830072 $
KHTS 260558Z 00000KT 1SM BR SCT002 BKN055 09/08 A2990 RMK AO2 T00890078 $
KHTS 260551Z 00000KT 3SM BR SCT039 BKN050 09/08 A2991 RMK AO2 SLP125 T00890078 10139 20083 56005 $
KHTS 260456Z 00000KT 3SM BR SCT039 BKN050 09/08 A2991 RMK AO2 T00940083 $
KHTS 260451Z 00000KT 3/4SM BR VV001 09/08 A2991 RMK AO2 SLP127 T00940083 401610083 $
KHTS 260414Z 06003KT 1/4SM FG VV001 09/08 A2991 RMK AO2 T00890078 $
KHTS 260402Z 08003KT 1/2SM FG VV001 09/08 A2991 RMK AO2 T00890083 $
KHTS 260351Z 00000KT 1/4SM FG VV001 10/08 A2991 RMK AO2 SLP129 T01000083 $
KHTS 260341Z 00000KT 1/4SM FG 10/09 A2991 RMK AO2 T01000089 $
KHTS 260331Z 00000KT 3/4SM BR VV001 10/09 A2992 RMK AO2 T01000089
KHTS 260324Z 00000KT 1 3/4SM BR SCT001 10/09 A2992 RMK AO2 VIS 1/2V5 T01000089
KHTS 260322Z 00000KT 3SM BR FEW001 11/09 A2992 RMK AO2 T01060089
KHTS 260251Z 00000KT 10SM CLR 10/09 A2992 RMK AO2 SLP131 T01000089 50005
KHTS 260151Z 21003KT 10SM CLR 11/09 A2992 RMK AO2 SLP131 T01110094
KHTS 260051Z 22003KT 10SM CLR 13/09 A2992 RMK AO2 SLP129 T01280094